Feng De Hai — VROR3 — position and weather

sailwx.info

Track history (hours):
 
Tides and Currents Weather Stations Pressure Air Temp Water Temp Dewpoint Dewpoint Depression Visibility Wind Speed Wind Dir Waves Ship Positions

Feng De Hai

Last reported at 2018-Jun-15 12:38 UTC. Time now 2018-Jun-22 18:51 UTC.
Position N 35°45' E 031°06'.

Length 200 m; draft 8.6 m.

Type: Cargo ship. MMSI: 477684100.

Date/timePositionNaut miles runAvg speedWind from/ knotsBaromVisibWave heightAir tempDewpointWater temp
2018-Jun-15 12:38N 35°45' E 031°06'314.2
2018-Jun-15 12:25N 35°45' E 031°02'26512.5
2018-Jun-14 15:09N 37°24' E 025°55'213.6
2018-Jun-14 15:00N 37°26' E 025°54'713.1
2018-Jun-14 14:30N 37°32' E 025°51'712.7
2018-Jun-14 13:58N 37°39' E 025°50'  
2018-Jun-07 21:35N 37°44' E 024°20'113.3
2018-Jun-07 21:29N 37°43' E 024°19'913.2
2018-Jun-07 20:46N 37°35' E 024°11'513.3
2018-Jun-07 20:24N 37°32' E 024°07'1313.1
2018-Jun-07 19:26N 37°21' E 023°59'512.9
2018-Jun-07 19:01N 37°16' E 023°56'713.2
2018-Jun-07 18:30N 37°10' E 023°52'1013.2
2018-Jun-07 17:46N 37°02' E 023°44'313.3
2018-Jun-07 17:30N 36°60' E 023°42'713.4
2018-Jun-07 17:00N 36°54' E 023°38'713.2
2018-Jun-07 16:30N 36°48' E 023°33'713.3
2018-Jun-07 16:00N 36°43' E 023°28'2013.0
2018-Jun-07 14:27N 36°25' E 023°16'39213.1
2018-Jun-06 08:29N 36°14' E 015°10'1212.7
2018-Jun-06 07:32N 36°14' E 014°55'112.8
2018-Jun-06 07:27N 36°15' E 014°54'612.8
2018-Jun-06 07:00N 36°15' E 014°47'812.7
2018-Jun-06 06:24N 36°15' E 014°37'512.8
2018-Jun-06 06:00N 36°14' E 014°31'612.8
2018-Jun-06 05:30N 36°15' E 014°23'712.5
2018-Jun-06 04:55N 36°16' E 014°14'512.4
2018-Jun-06 04:30N 36°18' E 014°08'612.6
2018-Jun-06 04:00N 36°20' E 014°01'713.0
2018-Jun-06 03:27N 36°23' E 013°52'613.3
2018-Jun-06 03:00N 36°25' E 013°46'  
Track history (hours):
 
Tides and Currents Weather Stations Pressure Air Temp Water Temp Dewpoint Dewpoint Depression Visibility Wind Speed Wind Dir Waves Ship Positions

Feng De Hai

Last reported at 2018-Jun-15 12:38 UTC. Time now 2018-Jun-22 18:51 UTC.
Position N 35°45' E 031°06'.

Length 200 m; draft 8.6 m.

Type: Cargo ship. MMSI: 477684100.

Date/timePositionNaut miles runAvg speedWind from/ knotsBaromVisibWave heightAir tempDewpointWater temp
2018-Jun-15 12:38N 35°45' E 031°06'314.2
2018-Jun-15 12:25N 35°45' E 031°02'26512.5
2018-Jun-14 15:09N 37°24' E 025°55'213.6
2018-Jun-14 15:00N 37°26' E 025°54'713.1
2018-Jun-14 14:30N 37°32' E 025°51'712.7
2018-Jun-14 13:58N 37°39' E 025°50'  
2018-Jun-07 21:35N 37°44' E 024°20'113.3
2018-Jun-07 21:29N 37°43' E 024°19'913.2
2018-Jun-07 20:46N 37°35' E 024°11'513.3
2018-Jun-07 20:24N 37°32' E 024°07'1313.1
2018-Jun-07 19:26N 37°21' E 023°59'512.9
2018-Jun-07 19:01N 37°16' E 023°56'713.2
2018-Jun-07 18:30N 37°10' E 023°52'1013.2
2018-Jun-07 17:46N 37°02' E 023°44'313.3
2018-Jun-07 17:30N 36°60' E 023°42'713.4
2018-Jun-07 17:00N 36°54' E 023°38'713.2
2018-Jun-07 16:30N 36°48' E 023°33'713.3
2018-Jun-07 16:00N 36°43' E 023°28'2013.0
2018-Jun-07 14:27N 36°25' E 023°16'39213.1
2018-Jun-06 08:29N 36°14' E 015°10'1212.7
2018-Jun-06 07:32N 36°14' E 014°55'112.8
2018-Jun-06 07:27N 36°15' E 014°54'612.8
2018-Jun-06 07:00N 36°15' E 014°47'812.7
2018-Jun-06 06:24N 36°15' E 014°37'512.8
2018-Jun-06 06:00N 36°14' E 014°31'612.8
2018-Jun-06 05:30N 36°15' E 014°23'712.5
2018-Jun-06 04:55N 36°16' E 014°14'512.4
2018-Jun-06 04:30N 36°18' E 014°08'612.6
2018-Jun-06 04:00N 36°20' E 014°01'713.0
2018-Jun-06 03:27N 36°23' E 013°52'613.3
2018-Jun-06 03:00N 36°25' E 013°46'  

Dump ship's entire track history